Time;durP1;ratioP1;P1;durP2;ratioP2;P2;SDS_P1;SDS_P2;PMS_P1;PMS_P2;Temp;Humidity;BMP_temperature;BMP_pressure;BME280_temperature;BME280_humidity;BME280_pressure;Samples;Min_cycle;Max_cycle;Signal;HPM_P1;HPM_P2
2021/12/20 00:02:02;;;;;;;;;;;20.90;52.20;;;;;;5040194;28;19920;-69
2021/12/20 00:04:27;;;;;;;;;;;20.90;52.20;;;;;;5042214;28;19920;-67
2021/12/20 00:06:53;;;;;;;;;;;20.90;52.20;;;;;;5040681;28;19969;-67
2021/12/20 00:09:18;;;;;;;;;;;20.90;52.20;;;;;;5045997;28;20435;-66
2021/12/20 00:11:44;;;;;;;;;;;20.90;52.20;;;;;;5041049;28;19913;-65
2021/12/20 00:14:09;;;;;;;;;;;20.80;52.20;;;;;;5045275;28;19959;-67
2021/12/20 00:16:35;;;;;;;;;;;20.80;52.10;;;;;;5040130;28;19917;-66
2021/12/20 00:19:00;;;;;;;;;;;20.80;52.10;;;;;;5042723;28;19912;-68
2021/12/20 00:21:26;;;;;;;;;;;20.80;52.10;;;;;;5038475;28;19975;-66
2021/12/20 00:23:51;;;;;;;;;;;20.80;52.10;;;;;;5039771;28;19978;-66
2021/12/20 00:26:17;;;;;;;;;;;20.80;52.20;;;;;;5040495;28;19956;-66
2021/12/20 00:28:42;;;;;;;;;;;20.80;52.10;;;;;;5045673;28;19931;-67
2021/12/20 00:31:08;;;;;;;;;;;20.80;52.20;;;;;;5040876;28;19920;-66
2021/12/20 00:33:34;;;;;;;;;;;20.80;52.20;;;;;;5043163;28;19973;-66
2021/12/20 00:36:00;;;;;;;;;;;20.80;52.20;;;;;;5042983;28;19955;-69
2021/12/20 00:41:09;;;;;;;;;;;20.80;52.20;;;;;;5041313;28;19970;-66
2021/12/20 00:43:35;;;;;;;;;;;20.70;52.10;;;;;;5042043;28;19924;-66
2021/12/20 00:46:00;;;;;;;;;;;20.70;52.10;;;;;;5041619;28;20024;-69
2021/12/20 00:48:26;;;;;;;;;;;20.70;52.60;;;;;;5041751;28;20264;-65
2021/12/20 00:50:51;;;;;;;;;;;20.70;52.10;;;;;;5043126;28;19951;-66
2021/12/20 00:53:17;;;;;;;;;;;20.70;52.10;;;;;;5041629;28;19920;-66
2021/12/20 00:55:43;;;;;;;;;;;20.70;52.10;;;;;;5041839;28;19912;-65
2021/12/20 00:58:09;;;;;;;;;;;20.70;52.10;;;;;;5041452;28;19913;-67
2021/12/20 01:00:36;;;;;;;;;;;20.70;52.10;;;;;;5043205;28;19916;-68
2021/12/20 01:03:03;;;;;;;;;;;20.70;52.10;;;;;;5045788;28;20034;-66
2021/12/20 01:05:28;;;;;;;;;;;20.70;52.10;;;;;;5042432;28;19916;-67
2021/12/20 01:07:57;;;;;;;;;;;20.70;52.20;;;;;;5042315;28;19974;-66
2021/12/20 01:10:24;;;;;;;;;;;20.70;52.20;;;;;;5043799;28;19919;-66
2021/12/20 01:12:51;;;;;;;;;;;20.70;52.20;;;;;;5036537;28;19917;-66
2021/12/20 01:15:21;;;;;;;;;;;20.60;52.10;;;;;;5041087;28;19915;-67
2021/12/20 01:17:47;;;;;;;;;;;20.60;52.10;;;;;;5041570;28;19968;-66
2021/12/20 01:20:13;;;;;;;;;;;20.70;52.20;;;;;;5043395;28;19909;-67
2021/12/20 01:22:43;;;;;;;;;;;20.60;52.10;;;;;;5036114;28;19919;-66
2021/12/20 01:25:08;;;;;;;;;;;20.60;52.10;;;;;;5042483;28;19942;-69
2021/12/20 01:27:34;;;;;;;;;;;20.60;52.10;;;;;;5042850;28;19928;-70
2021/12/20 01:29:59;;;;;;;;;;;20.60;52.10;;;;;;5042331;28;19944;-67
2021/12/20 01:32:25;;;;;;;;;;;20.60;52.10;;;;;;5034161;28;20517;-66
2021/12/20 01:34:50;;;;;;;;;;;20.60;52.20;;;;;;5045730;28;19924;-66
2021/12/20 01:37:16;;;;;;;;;;;20.60;52.20;;;;;;5039110;28;20016;-66
2021/12/20 01:39:41;;;;;;;;;;;20.60;52.20;;;;;;5042929;28;19991;-66
2021/12/20 01:42:07;;;;;;;;;;;20.60;52.20;;;;;;5043679;28;19919;-65
2021/12/20 01:44:33;;;;;;;;;;;20.60;52.10;;;;;;5045330;28;20392;-67
2021/12/20 01:47:01;;;;;;;;;;;20.60;52.20;;;;;;5035640;28;19912;-67
2021/12/20 01:49:28;;;;;;;;;;;20.60;52.20;;;;;;5045694;28;19960;-66
2021/12/20 01:52:10;;;;;;;;;;;20.50;52.10;;;;;;5039123;28;19928;-69
2021/12/20 01:54:36;;;;;;;;;;;20.60;52.20;;;;;;5039268;28;19952;-66
2021/12/20 01:57:01;;;;;;;;;;;20.50;52.10;;;;;;5045691;28;20434;-66
2021/12/20 01:59:28;;;;;;;;;;;20.50;52.10;;;;;;5039788;28;19908;-66
2021/12/20 02:01:54;;;;;;;;;;;20.50;52.10;;;;;;5042607;28;20387;-66
2021/12/20 02:04:20;;;;;;;;;;;20.50;52.10;;;;;;5042825;28;19920;-65
2021/12/20 02:06:48;;;;;;;;;;;20.50;52.10;;;;;;5040381;28;20027;-68
2021/12/20 02:09:18;;;;;;;;;;;20.50;52.10;;;;;;5043059;28;19913;-67
2021/12/20 02:11:45;;;;;;;;;;;20.50;52.10;;;;;;5037869;28;19908;-66
2021/12/20 02:14:11;;;;;;;;;;;20.50;52.10;;;;;;5044467;28;19916;-66
2021/12/20 02:16:38;;;;;;;;;;;20.50;52.20;;;;;;5044573;28;19917;-66
2021/12/20 02:19:05;;;;;;;;;;;20.50;52.20;;;;;;5042490;28;19909;-65
2021/12/20 02:21:31;;;;;;;;;;;20.50;52.10;;;;;;5038971;28;19924;-66
2021/12/20 02:23:57;;;;;;;;;;;20.40;52.10;;;;;;5044266;28;19916;-66
2021/12/20 02:26:24;;;;;;;;;;;20.50;52.20;;;;;;5038988;28;20454;-69
2021/12/20 02:28:52;;;;;;;;;;;20.40;52.10;;;;;;5045105;28;19913;-65
2021/12/20 02:39:18;;;;;;;;;;;20.40;52.10;;;;;;5044589;28;19920;-65
2021/12/20 02:41:44;;;;;;;;;;;20.40;52.10;;;;;;5047398;28;20486;-65
2021/12/20 02:44:29;;;;;;;;;;;20.40;52.10;;;;;;5043369;28;19927;-69
2021/12/20 02:49:21;;;;;;;;;;;20.40;52.10;;;;;;5048126;28;20261;-66
2021/12/20 02:51:47;;;;;;;;;;;20.40;52.10;;;;;;5044940;28;20691;-65
2021/12/20 02:54:13;;;;;;;;;;;20.40;52.10;;;;;;5047045;28;20003;-69
2021/12/20 02:56:39;;;;;;;;;;;20.30;52.10;;;;;;5043886;28;19956;-64
2021/12/20 02:59:06;;;;;;;;;;;20.40;52.10;;;;;;5044764;28;19961;-67
2021/12/20 03:01:32;;;;;;;;;;;20.40;52.20;;;;;;5045266;28;20328;-66
2021/12/20 03:03:58;;;;;;;;;;;20.30;52.10;;;;;;5040958;28;19974;-69
2021/12/20 03:06:26;;;;;;;;;;;20.40;52.20;;;;;;5041096;28;19920;-69
2021/12/20 03:08:53;;;;;;;;;;;20.30;52.10;;;;;;5046043;28;20249;-67
2021/12/20 03:11:20;;;;;;;;;;;20.40;52.10;;;;;;5041295;28;19912;-69
2021/12/20 03:13:49;;;;;;;;;;;20.40;52.10;;;;;;5047781;28;19962;-66
2021/12/20 03:16:15;;;;;;;;;;;20.30;52.10;;;;;;5045103;28;20257;-69
2021/12/20 03:18:41;;;;;;;;;;;20.30;52.10;;;;;;5046693;28;20388;-66
2021/12/20 03:21:06;;;;;;;;;;;20.30;52.10;;;;;;5037582;28;20042;-66
2021/12/20 03:23:32;;;;;;;;;;;20.30;52.10;;;;;;5039936;28;19921;-68
2021/12/20 03:25:57;;;;;;;;;;;20.30;52.10;;;;;;5045098;28;19909;-66
2021/12/20 03:28:23;;;;;;;;;;;20.30;52.10;;;;;;5046843;28;19936;-65
2021/12/20 03:30:48;;;;;;;;;;;20.30;52.10;;;;;;5045881;28;20031;-65
2021/12/20 03:33:14;;;;;;;;;;;20.30;52.10;;;;;;5044400;28;19970;-66
2021/12/20 03:35:39;;;;;;;;;;;20.30;52.70;;;;;;5040889;28;19917;-67
2021/12/20 03:38:05;;;;;;;;;;;20.30;52.10;;;;;;5042330;28;19920;-68
2021/12/20 03:40:32;;;;;;;;;;;20.30;52.20;;;;;;5043324;28;19963;-65
2021/12/20 03:42:58;;;;;;;;;;;20.30;52.20;;;;;;5045831;28;19913;-65
2021/12/20 03:45:23;;;;;;;;;;;20.30;52.10;;;;;;5044186;28;20268;-65
2021/12/20 03:47:49;;;;;;;;;;;20.30;52.10;;;;;;5043877;28;19935;-66
2021/12/20 03:50:14;;;;;;;;;;;20.30;52.20;;;;;;5043870;28;19909;-66
2021/12/20 03:52:40;;;;;;;;;;;20.30;52.20;;;;;;5042375;28;19908;-65
2021/12/20 03:55:06;;;;;;;;;;;20.30;52.10;;;;;;5046446;28;20526;-65
2021/12/20 03:57:32;;;;;;;;;;;20.30;52.20;;;;;;5046826;28;20383;-69
2021/12/20 03:59:58;;;;;;;;;;;20.30;52.10;;;;;;5045957;28;20363;-65
2021/12/20 04:02:24;;;;;;;;;;;20.30;52.20;;;;;;5042759;28;20028;-66
2021/12/20 04:04:50;;;;;;;;;;;20.20;52.10;;;;;;5044588;28;19912;-65
2021/12/20 04:07:16;;;;;;;;;;;20.30;52.20;;;;;;5042342;28;19931;-69
2021/12/20 04:09:41;;;;;;;;;;;20.20;52.10;;;;;;5043989;28;19909;-69
2021/12/20 04:12:09;;;;;;;;;;;20.20;52.20;;;;;;5045893;28;19995;-65
2021/12/20 04:14:35;;;;;;;;;;;20.20;52.20;;;;;;5041978;28;19917;-64
2021/12/20 04:17:00;;;;;;;;;;;20.20;52.20;;;;;;5047162;28;19916;-65
2021/12/20 04:19:26;;;;;;;;;;;20.20;52.20;;;;;;5043686;28;20724;-65
2021/12/20 04:21:51;;;;;;;;;;;20.20;52.30;;;;;;5042168;28;19916;-65
2021/12/20 04:24:17;;;;;;;;;;;20.20;52.30;;;;;;5041088;28;19916;-65
2021/12/20 04:26:42;;;;;;;;;;;20.20;52.30;;;;;;5035950;28;19913;-69
2021/12/20 04:29:09;;;;;;;;;;;20.20;52.40;;;;;;5040913;28;20012;-65
2021/12/20 04:31:35;;;;;;;;;;;20.20;52.40;;;;;;5041379;28;20008;-65
2021/12/20 04:34:01;;;;;;;;;;;20.10;52.30;;;;;;5044604;28;19909;-65
2021/12/20 04:36:28;;;;;;;;;;;20.10;52.40;;;;;;5040814;28;20426;-66
2021/12/20 04:38:54;;;;;;;;;;;20.20;52.50;;;;;;5045783;28;19913;-69
2021/12/20 04:41:19;;;;;;;;;;;20.10;52.40;;;;;;5039244;28;19916;-65
2021/12/20 04:43:45;;;;;;;;;;;20.10;52.50;;;;;;5041567;28;20009;-66
2021/12/20 04:46:10;;;;;;;;;;;20.10;52.40;;;;;;5037286;28;19913;-67
2021/12/20 04:48:36;;;;;;;;;;;20.10;52.50;;;;;;5046213;28;19955;-65
2021/12/20 04:51:02;;;;;;;;;;;20.10;52.50;;;;;;5039395;28;19947;-66
2021/12/20 04:53:27;;;;;;;;;;;20.10;52.50;;;;;;5040436;28;20000;-66
2021/12/20 04:55:52;;;;;;;;;;;20.10;52.50;;;;;;5043246;28;19915;-69
2021/12/20 04:58:18;;;;;;;;;;;20.10;52.60;;;;;;5041369;28;19913;-66
2021/12/20 05:00:44;;;;;;;;;;;20.10;52.70;;;;;;5040699;28;19920;-66
2021/12/20 05:03:10;;;;;;;;;;;20.10;52.70;;;;;;5041322;28;19916;-69
2021/12/20 05:05:35;;;;;;;;;;;20.10;52.70;;;;;;5040509;28;19904;-67
2021/12/20 05:08:01;;;;;;;;;;;20.10;52.70;;;;;;5037490;28;19913;-69
2021/12/20 05:10:31;;;;;;;;;;;20.10;52.70;;;;;;5043081;28;19948;-67
2021/12/20 05:12:58;;;;;;;;;;;20.10;52.70;;;;;;5053740;28;19909;-69
2021/12/20 05:15:24;;;;;;;;;;;20.10;52.80;;;;;;5037952;28;19912;-65
2021/12/20 05:17:50;;;;;;;;;;;20.10;52.80;;;;;;5038638;28;20031;-67
2021/12/20 05:20:15;;;;;;;;;;;20.10;52.80;;;;;;5038445;28;19958;-67
2021/12/20 05:22:41;;;;;;;;;;;20.10;52.90;;;;;;5039130;28;19954;-69
2021/12/20 05:25:07;;;;;;;;;;;20.10;52.90;;;;;;5038989;28;20284;-65
2021/12/20 05:27:32;;;;;;;;;;;20.10;52.90;;;;;;5043431;28;19912;-65
2021/12/20 05:29:59;;;;;;;;;;;20.10;52.90;;;;;;5045008;28;20283;-69
2021/12/20 05:32:25;;;;;;;;;;;20.10;52.90;;;;;;5034386;28;20014;-69
2021/12/20 05:34:50;;;;;;;;;;;20.10;53.00;;;;;;5041008;28;19992;-66
2021/12/20 05:37:16;;;;;;;;;;;20.00;53.00;;;;;;5034738;28;19917;-67
2021/12/20 05:39:47;;;;;;;;;;;20.10;53.00;;;;;;5044216;28;19916;-66
2021/12/20 05:42:12;;;;;;;;;;;20.10;53.00;;;;;;5041020;28;19917;-66
2021/12/20 05:44:38;;;;;;;;;;;20.10;53.10;;;;;;5045473;28;19916;-66
2021/12/20 05:47:04;;;;;;;;;;;20.10;53.10;;;;;;5039657;28;19920;-66
2021/12/20 05:49:31;;;;;;;;;;;20.10;53.20;;;;;;5043435;28;20380;-66
2021/12/20 05:51:58;;;;;;;;;;;20.00;53.20;;;;;;5034352;28;19940;-66
2021/12/20 05:54:23;;;;;;;;;;;20.00;53.20;;;;;;5038555;28;19916;-65
2021/12/20 05:56:49;;;;;;;;;;;20.00;53.30;;;;;;5041160;28;19912;-65
2021/12/20 05:59:14;;;;;;;;;;;20.00;53.30;;;;;;5044278;28;19913;-65
2021/12/20 06:01:40;;;;;;;;;;;20.00;53.30;;;;;;5040336;28;19920;-67
2021/12/20 06:04:05;;;;;;;;;;;20.00;53.30;;;;;;5039623;28;19912;-65
2021/12/20 06:06:32;;;;;;;;;;;20.00;53.30;;;;;;5042039;28;20011;-69
2021/12/20 06:08:58;;;;;;;;;;;20.00;53.30;;;;;;5044318;28;19916;-65
2021/12/20 06:11:24;;;;;;;;;;;20.00;53.30;;;;;;5042583;28;19911;-67
2021/12/20 06:13:50;;;;;;;;;;;20.00;53.30;;;;;;5042583;28;19948;-67
2021/12/20 06:16:16;;;;;;;;;;;20.00;53.60;;;;;;5043469;28;20281;-66
2021/12/20 06:18:41;;;;;;;;;;;20.20;54.30;;;;;;5051329;28;20000;-66
2021/12/20 06:21:07;;;;;;;;;;;20.50;54.60;;;;;;5052544;28;19912;-69
2021/12/20 06:23:33;;;;;;;;;;;20.80;54.60;;;;;;5058719;28;19920;-66
2021/12/20 06:25:58;;;;;;;;;;;21.00;54.10;;;;;;5061136;28;20668;-65
2021/12/20 06:28:24;;;;;;;;;;;21.30;53.60;;;;;;5054210;28;19908;-67
2021/12/20 06:30:49;;;;;;;;;;;21.50;53.40;;;;;;5052518;28;19917;-67
2021/12/20 06:33:15;;;;;;;;;;;21.70;53.40;;;;;;5051827;28;19909;-69
2021/12/20 06:35:40;;;;;;;;;;;21.80;52.80;;;;;;5053086;28;20367;-67
2021/12/20 06:38:08;;;;;;;;;;;21.90;53.10;;;;;;5051268;28;19909;-66
2021/12/20 06:40:34;;;;;;;;;;;22.10;53.10;;;;;;5053092;28;19908;-67
2021/12/20 06:43:00;;;;;;;;;;;22.20;52.90;;;;;;5046109;28;20001;-67
2021/12/20 06:45:26;;;;;;;;;;;22.40;52.80;;;;;;5049629;28;19913;-67
2021/12/20 06:47:51;;;;;;;;;;;22.60;52.40;;;;;;5052888;28;19936;-67
2021/12/20 06:50:17;;;;;;;;;;;22.80;52.10;;;;;;5053560;28;19913;-68
2021/12/20 06:52:42;;;;;;;;;;;22.90;52.00;;;;;;5058523;28;20361;-67
2021/12/20 06:55:09;;;;;;;;;;;23.10;51.70;;;;;;5052527;28;19920;-65
2021/12/20 06:57:35;;;;;;;;;;;23.30;51.50;;;;;;5053917;28;20004;-69
2021/12/20 07:00:01;;;;;;;;;;;23.20;51.00;;;;;;5053180;28;20344;-68
2021/12/20 07:02:27;;;;;;;;;;;23.10;51.20;;;;;;5052584;28;19920;-65
2021/12/20 07:04:53;;;;;;;;;;;23.00;51.50;;;;;;5047818;28;20038;-68
2021/12/20 07:07:18;;;;;;;;;;;22.90;51.70;;;;;;5051041;28;19967;-65
2021/12/20 07:09:44;;;;;;;;;;;22.80;51.80;;;;;;5045318;28;19974;-65
2021/12/20 07:12:09;;;;;;;;;;;22.80;51.90;;;;;;5052346;28;19925;-68
2021/12/20 07:14:35;;;;;;;;;;;22.80;51.80;;;;;;5042056;28;20489;-65
2021/12/20 07:17:00;;;;;;;;;;;22.80;51.90;;;;;;5057064;28;19912;-67
2021/12/20 07:19:26;;;;;;;;;;;22.80;51.90;;;;;;5050831;28;19927;-68
2021/12/20 07:21:51;;;;;;;;;;;22.80;52.00;;;;;;5056651;28;19923;-66
2021/12/20 07:24:17;;;;;;;;;;;22.80;52.00;;;;;;5062316;28;19971;-67
2021/12/20 07:26:43;;;;;;;;;;;22.80;52.10;;;;;;5062676;28;19936;-67
2021/12/20 07:29:08;;;;;;;;;;;22.80;52.10;;;;;;5052864;28;19991;-68
2021/12/20 07:31:34;;;;;;;;;;;22.80;52.00;;;;;;5055704;28;19994;-69
2021/12/20 07:33:59;;;;;;;;;;;22.80;52.00;;;;;;5041371;28;19913;-67
2021/12/20 07:36:25;;;;;;;;;;;22.80;52.70;;;;;;5046537;28;19966;-65
2021/12/20 07:38:51;;;;;;;;;;;22.90;52.80;;;;;;5044372;28;20407;-65
2021/12/20 07:41:20;;;;;;;;;;;22.90;52.80;;;;;;5044444;28;19916;-67
2021/12/20 07:43:46;;;;;;;;;;;22.90;52.90;;;;;;5047266;28;20028;-65
2021/12/20 07:46:12;;;;;;;;;;;22.90;51.90;;;;;;5044921;28;19913;-67
2021/12/20 07:48:37;;;;;;;;;;;22.90;52.00;;;;;;5045639;28;20349;-69
2021/12/20 07:51:04;;;;;;;;;;;22.90;52.10;;;;;;5041412;28;19916;-67
2021/12/20 07:53:30;;;;;;;;;;;22.90;52.20;;;;;;5040256;28;19993;-66
2021/12/20 07:55:55;;;;;;;;;;;22.90;51.00;;;;;;5043240;28;20457;-67
2021/12/20 07:58:21;;;;;;;;;;;22.90;49.70;;;;;;5043400;28;19913;-69
2021/12/20 08:00:46;;;;;;;;;;;22.90;49.80;;;;;;5038587;28;19925;-65
2021/12/20 08:03:12;;;;;;;;;;;22.90;50.70;;;;;;5040057;28;20353;-68
2021/12/20 08:05:38;;;;;;;;;;;22.90;50.70;;;;;;5043017;28;19921;-68
2021/12/20 08:08:04;;;;;;;;;;;22.90;51.10;;;;;;5042933;28;19913;-69
2021/12/20 08:10:30;;;;;;;;;;;22.90;51.20;;;;;;5044600;28;19951;-67
2021/12/20 08:12:55;;;;;;;;;;;22.90;52.00;;;;;;5045704;28;20626;-67
2021/12/20 08:15:21;;;;;;;;;;;23.00;51.70;;;;;;5039778;28;19912;-69
2021/12/20 08:17:47;;;;;;;;;;;23.00;52.00;;;;;;5041816;28;19913;-68
2021/12/20 08:20:13;;;;;;;;;;;23.00;51.90;;;;;;5042831;28;19919;-68
2021/12/20 08:22:39;;;;;;;;;;;23.00;50.90;;;;;;5042141;28;19913;-67
2021/12/20 08:25:05;;;;;;;;;;;23.00;51.30;;;;;;5044485;28;19959;-68
2021/12/20 08:27:30;;;;;;;;;;;23.00;51.30;;;;;;5042268;28;19909;-70
2021/12/20 08:29:56;;;;;;;;;;;23.00;51.90;;;;;;5045467;28;19912;-69
2021/12/20 08:32:22;;;;;;;;;;;23.00;52.10;;;;;;5035715;28;19913;-68
2021/12/20 08:34:47;;;;;;;;;;;23.10;52.40;;;;;;5042254;28;20042;-67
2021/12/20 08:37:13;;;;;;;;;;;23.10;52.60;;;;;;5035576;28;19913;-67
2021/12/20 08:39:38;;;;;;;;;;;23.10;53.20;;;;;;5041451;28;20249;-70
2021/12/20 08:42:04;;;;;;;;;;;23.10;54.00;;;;;;5040837;28;20348;-65
2021/12/20 08:44:31;;;;;;;;;;;23.20;52.30;;;;;;5043725;28;19921;-65
2021/12/20 08:46:58;;;;;;;;;;;23.10;52.50;;;;;;5040880;28;19931;-66
2021/12/20 08:49:24;;;;;;;;;;;23.20;52.20;;;;;;5041421;28;19917;-67
2021/12/20 08:51:49;;;;;;;;;;;23.20;52.30;;;;;;5039089;28;19912;-67
2021/12/20 08:54:15;;;;;;;;;;;23.20;52.40;;;;;;5044371;28;20022;-68
2021/12/20 08:56:41;;;;;;;;;;;23.20;52.20;;;;;;5041516;28;19905;-66
2021/12/20 08:59:06;;;;;;;;;;;23.20;53.00;;;;;;5041055;28;20020;-68
2021/12/20 09:01:32;;;;;;;;;;;23.20;53.70;;;;;;5037124;28;20458;-67
2021/12/20 09:03:59;;;;;;;;;;;23.20;53.10;;;;;;5043980;28;20313;-66
2021/12/20 09:06:25;;;;;;;;;;;23.30;53.30;;;;;;5039938;28;19913;-65
2021/12/20 09:08:56;;;;;;;;;;;23.30;53.70;;;;;;5038987;28;20383;-66
2021/12/20 09:11:22;;;;;;;;;;;23.30;54.00;;;;;;5040196;28;20035;-67
2021/12/20 09:13:48;;;;;;;;;;;23.30;53.80;;;;;;5044846;28;20430;-67
2021/12/20 09:16:14;;;;;;;;;;;23.30;52.60;;;;;;5046048;28;19908;-66
2021/12/20 09:18:39;;;;;;;;;;;23.30;45.00;;;;;;5042975;28;19944;-69
2021/12/20 09:21:05;;;;;;;;;;;23.10;42.60;;;;;;5039710;28;19976;-67
2021/12/20 09:23:32;;;;;;;;;;;23.10;41.00;;;;;;5053281;28;19959;-67
2021/12/20 09:25:57;;;;;;;;;;;22.90;42.80;;;;;;5048596;28;20312;-65
2021/12/20 09:28:23;;;;;;;;;;;22.90;43.60;;;;;;5040946;28;19928;-66
2021/12/20 09:30:49;;;;;;;;;;;22.80;41.60;;;;;;5040471;28;19982;-67
2021/12/20 09:33:15;;;;;;;;;;;22.70;42.20;;;;;;5045638;28;19919;-67
2021/12/20 09:35:41;;;;;;;;;;;22.70;41.40;;;;;;5039318;28;19913;-67
2021/12/20 09:38:09;;;;;;;;;;;22.60;39.20;;;;;;5040514;28;19966;-67
2021/12/20 09:40:40;;;;;;;;;;;22.50;40.50;;;;;;5040753;28;19919;-67
2021/12/20 09:43:07;;;;;;;;;;;22.50;40.40;;;;;;5045749;28;19992;-67
2021/12/20 09:45:33;;;;;;;;;;;22.50;39.90;;;;;;5046168;28;19958;-66
2021/12/20 09:47:58;;;;;;;;;;;22.40;39.80;;;;;;5045660;28;19913;-69
2021/12/20 09:50:24;;;;;;;;;;;22.30;39.80;;;;;;5045795;28;19931;-68
2021/12/20 09:52:49;;;;;;;;;;;22.30;40.80;;;;;;5041731;28;20060;-66
2021/12/20 09:55:16;;;;;;;;;;;22.20;40.30;;;;;;5047024;28;19919;-69
2021/12/20 09:57:42;;;;;;;;;;;22.20;42.00;;;;;;5045478;28;20384;-69
2021/12/20 10:00:09;;;;;;;;;;;22.20;43.90;;;;;;5046922;28;19977;-67
2021/12/20 10:02:34;;;;;;;;;;;22.30;46.20;;;;;;5046471;28;20344;-68
2021/12/20 10:05:00;;;;;;;;;;;22.20;46.30;;;;;;5043995;28;19959;-66
2021/12/20 10:07:28;;;;;;;;;;;22.30;46.60;;;;;;5040156;28;19991;-66
2021/12/20 10:09:53;;;;;;;;;;;22.30;47.10;;;;;;5045332;28;20063;-65
2021/12/20 10:12:19;;;;;;;;;;;22.20;47.30;;;;;;5036061;28;20003;-67
2021/12/20 10:14:51;;;;;;;;;;;22.30;47.50;;;;;;5043985;28;20002;-69
2021/12/20 10:17:17;;;;;;;;;;;22.30;47.30;;;;;;5045746;28;20050;-66
2021/12/20 10:19:42;;;;;;;;;;;22.40;47.90;;;;;;5042190;28;20003;-67
2021/12/20 10:22:21;;;;;;;;;;;22.40;47.80;;;;;;5041813;28;19916;-65
2021/12/20 10:24:47;;;;;;;;;;;22.40;47.90;;;;;;5045948;28;20332;-66
2021/12/20 10:27:27;;;;;;;;;;;22.40;47.90;;;;;;5043754;28;19963;-68
2021/12/20 10:29:52;;;;;;;;;;;22.40;48.00;;;;;;5046017;28;20291;-69
2021/12/20 10:32:36;;;;;;;;;;;22.40;48.00;;;;;;5044566;28;19929;-67
2021/12/20 10:35:02;;;;;;;;;;;22.40;48.10;;;;;;5041481;28;20355;-69
2021/12/20 10:37:43;;;;;;;;;;;22.40;48.40;;;;;;5037979;28;19909;-68
2021/12/20 10:40:09;;;;;;;;;;;22.40;48.00;;;;;;5040073;28;19917;-66
2021/12/20 10:42:40;;;;;;;;;;;22.40;48.20;;;;;;5041245;28;19966;-66
2021/12/20 10:45:17;;;;;;;;;;;22.40;48.20;;;;;;5045339;28;19916;-68
2021/12/20 10:47:43;;;;;;;;;;;22.40;48.40;;;;;;5038027;28;19934;-68
2021/12/20 10:50:19;;;;;;;;;;;22.40;48.20;;;;;;5041817;28;19913;-65
2021/12/20 10:52:44;;;;;;;;;;;22.40;48.40;;;;;;5038515;28;19935;-64
2021/12/20 10:55:11;;;;;;;;;;;22.40;48.40;;;;;;5043325;28;19935;-68
2021/12/20 10:57:36;;;;;;;;;;;22.40;48.40;;;;;;5039617;28;19913;-64
2021/12/20 11:00:15;;;;;;;;;;;22.40;48.40;;;;;;5000432;28;1087371;-66
2021/12/20 11:05:36;;;;;;;;;;;22.50;48.60;;;;;;5045302;28;20292;-66
2021/12/20 11:11:11;;;;;;;;;;;22.50;48.60;;;;;;5044601;28;19922;-67
2021/12/20 11:13:38;;;;;;;;;;;22.50;48.60;;;;;;5042858;28;19920;-66
2021/12/20 11:16:22;;;;;;;;;;;22.50;48.60;;;;;;5040912;28;20077;-65
2021/12/20 11:19:07;;;;;;;;;;;22.50;48.70;;;;;;5043978;28;19951;-69
2021/12/20 11:21:33;;;;;;;;;;;22.40;48.70;;;;;;5036598;28;19917;-66
2021/12/20 11:23:59;;;;;;;;;;;22.50;49.00;;;;;;5043265;28;19951;-66
2021/12/20 11:26:27;;;;;;;;;;;22.50;49.00;;;;;;5041920;28;19944;-68
2021/12/20 11:28:53;;;;;;;;;;;22.50;49.00;;;;;;5043708;28;20111;-65
2021/12/20 11:31:18;;;;;;;;;;;22.50;49.10;;;;;;5044744;28;19932;-66
2021/12/20 11:33:44;;;;;;;;;;;22.50;49.10;;;;;;5042595;28;19909;-65
2021/12/20 11:36:09;;;;;;;;;;;22.50;49.00;;;;;;5039626;28;19917;-66
2021/12/20 11:38:35;;;;;;;;;;;22.50;49.00;;;;;;5058752;28;20016;-68
2021/12/20 11:41:00;;;;;;;;;;;22.50;49.00;;;;;;5044573;28;19947;-64
2021/12/20 11:43:26;;;;;;;;;;;22.50;49.00;;;;;;5042314;28;19951;-65
2021/12/20 11:45:52;;;;;;;;;;;22.50;49.00;;;;;;5044231;28;19912;-67
2021/12/20 11:48:20;;;;;;;;;;;22.50;49.00;;;;;;5040801;28;19917;-65
2021/12/20 11:50:45;;;;;;;;;;;22.50;49.00;;;;;;5037706;28;19908;-67
2021/12/20 11:53:15;;;;;;;;;;;22.50;48.90;;;;;;5035898;28;19935;-68
2021/12/20 11:55:50;;;;;;;;;;;22.50;48.80;;;;;;5034443;28;20568;-65
2021/12/20 11:58:23;;;;;;;;;;;22.50;49.00;;;;;;5041817;28;20368;-68
2021/12/20 12:00:49;;;;;;;;;;;22.60;48.80;;;;;;5037821;28;19932;-65
2021/12/20 12:03:19;;;;;;;;;;;22.60;48.80;;;;;;5040853;28;19913;-66
2021/12/20 12:06:14;;;;;;;;;;;22.60;48.80;;;;;;5042694;28;20015;-66
2021/12/20 12:08:39;;;;;;;;;;;22.60;48.80;;;;;;5036018;28;19939;-66
2021/12/20 12:11:05;;;;;;;;;;;22.60;48.70;;;;;;5039584;28;19909;-66
2021/12/20 12:13:58;;;;;;;;;;;22.60;48.80;;;;;;5040016;28;20375;-67
2021/12/20 12:16:28;;;;;;;;;;;22.60;48.70;;;;;;5036148;28;19912;-68
2021/12/20 12:18:55;;;;;;;;;;;22.70;48.80;;;;;;5040148;28;19947;-67
2021/12/20 12:21:33;;;;;;;;;;;22.70;48.90;;;;;;5038244;28;19916;-66
2021/12/20 12:23:59;;;;;;;;;;;22.70;48.80;;;;;;5042541;28;19939;-67
2021/12/20 12:26:29;;;;;;;;;;;22.70;48.80;;;;;;5036000;28;19912;-66
2021/12/20 12:28:56;;;;;;;;;;;22.80;48.90;;;;;;5041890;28;20012;-65
2021/12/20 12:31:22;;;;;;;;;;;22.80;48.90;;;;;;5035532;28;19928;-65
2021/12/20 12:33:51;;;;;;;;;;;22.80;49.00;;;;;;5040274;28;19913;-66
2021/12/20 12:36:24;;;;;;;;;;;22.80;49.00;;;;;;5038656;28;19912;-64
2021/12/20 12:38:52;;;;;;;;;;;22.80;49.00;;;;;;5043972;28;19958;-67
2021/12/20 12:41:21;;;;;;;;;;;22.80;48.90;;;;;;5039502;28;19913;-65
2021/12/20 12:43:52;;;;;;;;;;;22.80;48.90;;;;;;5044263;28;19928;-65
2021/12/20 12:46:36;;;;;;;;;;;22.80;48.90;;;;;;5037742;28;19920;-65
2021/12/20 12:49:20;;;;;;;;;;;22.80;49.00;;;;;;5041989;28;19938;-65
2021/12/20 12:51:45;;;;;;;;;;;22.80;49.10;;;;;;5032572;28;19909;-65
2021/12/20 12:54:31;;;;;;;;;;;22.90;49.10;;;;;;5039642;28;19920;-66
2021/12/20 12:57:17;;;;;;;;;;;22.90;49.00;;;;;;5043896;28;19996;-65
2021/12/20 12:59:42;;;;;;;;;;;22.90;49.00;;;;;;5032609;28;20296;-66
2021/12/20 13:02:09;;;;;;;;;;;22.90;49.00;;;;;;5037729;28;19916;-65
2021/12/20 13:04:47;;;;;;;;;;;22.90;49.00;;;;;;5040932;28;19921;-65
2021/12/20 13:07:16;;;;;;;;;;;22.90;49.00;;;;;;5039497;28;19923;-64
2021/12/20 13:09:46;;;;;;;;;;;22.90;49.00;;;;;;5043844;28;20243;-67
2021/12/20 13:12:16;;;;;;;;;;;22.90;49.10;;;;;;5035813;28;20004;-66
2021/12/20 13:14:52;;;;;;;;;;;23.00;49.20;;;;;;5040887;28;20203;-67
2021/12/20 13:17:28;;;;;;;;;;;22.90;49.20;;;;;;5037576;28;20237;-65
2021/12/20 13:20:07;;;;;;;;;;;22.90;49.20;;;;;;5042862;28;19924;-65
2021/12/20 13:22:32;;;;;;;;;;;22.90;49.20;;;;;;5037413;28;19955;-65
2021/12/20 13:24:58;;;;;;;;;;;22.90;49.20;;;;;;5046382;28;20010;-67
2021/12/20 13:27:29;;;;;;;;;;;22.90;49.20;;;;;;5040021;28;20261;-67
2021/12/20 13:29:55;;;;;;;;;;;23.00;49.30;;;;;;5038149;28;19923;-68
2021/12/20 13:32:20;;;;;;;;;;;23.00;49.30;;;;;;5041453;28;19913;-69
2021/12/20 13:34:46;;;;;;;;;;;22.90;49.20;;;;;;5056906;28;19920;-69
2021/12/20 13:37:12;;;;;;;;;;;22.90;49.80;;;;;;5039800;28;19961;-69
2021/12/20 13:39:38;;;;;;;;;;;23.00;49.30;;;;;;5040833;28;19948;-66
2021/12/20 13:42:08;;;;;;;;;;;22.90;49.20;;;;;;5039880;28;19947;-65
2021/12/20 13:44:34;;;;;;;;;;;22.90;50.50;;;;;;5040692;28;20035;-64
2021/12/20 13:47:03;;;;;;;;;;;23.00;50.70;;;;;;5037998;28;19917;-65
2021/12/20 13:49:29;;;;;;;;;;;23.10;50.70;;;;;;5042913;28;20359;-66
2021/12/20 13:51:59;;;;;;;;;;;23.10;51.00;;;;;;5039829;28;19944;-66
2021/12/20 13:54:27;;;;;;;;;;;23.20;51.00;;;;;;5038333;28;20410;-67
2021/12/20 13:57:08;;;;;;;;;;;23.20;51.30;;;;;;5042065;28;19960;-67
2021/12/20 13:59:37;;;;;;;;;;;23.30;51.20;;;;;;5037599;28;19943;-66
2021/12/20 14:02:05;;;;;;;;;;;23.30;51.30;;;;;;5050144;28;20003;-66
2021/12/20 14:04:33;;;;;;;;;;;23.40;50.90;;;;;;5042364;28;19920;-67
2021/12/20 14:06:59;;;;;;;;;;;23.30;49.70;;;;;;5038187;28;20007;-67
2021/12/20 14:09:35;;;;;;;;;;;23.40;49.30;;;;;;5036523;28;20415;-66
2021/12/20 14:12:08;;;;;;;;;;;23.30;49.10;;;;;;5036092;28;20350;-67
2021/12/20 14:14:34;;;;;;;;;;;23.40;49.10;;;;;;5039038;28;19912;-64
2021/12/20 14:17:01;;;;;;;;;;;23.30;49.00;;;;;;5044452;28;19913;-66
2021/12/20 14:19:45;;;;;;;;;;;23.30;49.00;;;;;;5039972;28;19940;-66
2021/12/20 14:22:10;;;;;;;;;;;23.30;49.10;;;;;;5039538;28;19912;-65
2021/12/20 14:24:39;;;;;;;;;;;23.30;49.00;;;;;;5039944;28;19947;-67
2021/12/20 14:27:05;;;;;;;;;;;23.30;48.90;;;;;;5047297;28;20366;-68
2021/12/20 14:29:33;;;;;;;;;;;23.30;49.50;;;;;;5040353;28;19913;-67
2021/12/20 14:32:00;;;;;;;;;;;23.30;49.00;;;;;;5052210;28;20763;-67
2021/12/20 14:34:30;;;;;;;;;;;23.30;48.90;;;;;;5047411;28;19909;-68
2021/12/20 14:37:05;;;;;;;;;;;23.30;48.90;;;;;;5042157;28;19913;-65